Portada
METAR-TAF:

METAR-TAF

Aeroports :

Northolt, Anglaterra

latitud: 51-33N, longitud: 000-25W, altitud: 38 m

Observació

L'informe es va fer fa 27 minuts, a les 14:50 UTC
Vent 15 kt del Est/Nord-Est
Temperatura 24°C
Humitat 36%
Pressió 1015 hPa
Visibilitat 10 km o més
sense núvols per sota de 1500 mi sense presència de cumulonimbus.

METAR: EGWU 191450Z 06015KT CAVOK 24/08 Q1015 NOSIG RMK BLU BLU

Hora: 16:17 (15:17 UTC)

Pronòstic

L'informe es va fer fa 1 hora i 34 minuts, a les 13:43 UTC
Pronòstic vàlid del 19 a les 15 UTC al 20 a les 09 UTC
Vent 12 kt del Est/Nord-Est
Visibilitat 10 km o més
sense núvols per sota de 1500 mi sense presència de cumulonimbus.
Probabilitat 30% :
Temporalment
l' 19 a les 15 UTC al 19 a les 17 UTC
Vent 15 kt del Est amb ràfegues de 25 kt

TAF: EGWU 191343Z 1915/2009 07012KT CAVOK PROB30 TEMPO 1915/1917 08015G25KT

Observacions i pronòstics meteorològics de més de 4000 aeroports (METAR i TAF).

Les estacions disponibles són els punts grocs i vermells al mapa.

Posi el ratolí al punt desitjat per veure el nom de l'estació.

Feu clic per veure les observacions i els pronòstics meteorològics.

Per canviar el mapa: feu clic els botons verds amb una creu de color negre per apropar; al botó verd amb un guió per allunyar la imatge; o en les fletxes verdes per a mapes adjacents.


METAR-TAF: